Time;durP1;ratioP1;P1;durP2;ratioP2;P2;SDS_P1;SDS_P2;PMS_P1;PMS_P2;Temp;Humidity;BMP_temperature;BMP_pressure;BME280_temperature;BME280_humidity;BME280_pressure;Samples;Min_cycle;Max_cycle;Signal;HPM_P1;HPM_P2
2022/05/09 00:01:36;;;;;;;7.18;6.00;;;;;;;16.42;59.05;99758.50;5107304;28;20181;-74
2022/05/09 00:04:06;;;;;;;7.68;6.88;;;;;;;16.13;59.02;99716.00;5107093;28;20177;-73
2022/05/09 00:06:36;;;;;;;9.25;7.20;;;;;;;16.17;58.60;99716.63;5107059;28;20036;-73
2022/05/09 00:09:06;;;;;;;7.82;6.20;;;;;;;16.47;58.82;99757.19;5107034;28;20093;-73
2022/05/09 00:11:36;;;;;;;9.75;7.60;;;;;;;16.46;58.36;99757.28;5107168;28;20292;-74
2022/05/09 00:14:07;;;;;;;7.43;6.72;;;;;;;15.43;58.57;99590.09;5106916;28;20047;-74
2022/05/09 00:16:39;;;;;;;7.90;5.93;;;;;;;16.44;58.88;99756.56;5107155;28;20036;-73
2022/05/09 00:19:10;;;;;;;7.00;6.30;;;;;;;16.43;58.68;99754.84;5106280;28;20040;-73
2022/05/09 00:21:40;;;;;;;7.75;6.93;;;;;;;16.41;58.55;99757.63;5106605;28;20217;-73
2022/05/09 00:24:13;;;;;;;8.88;6.68;;;;;;;16.38;58.66;99763.22;5106907;28;20183;-73
2022/05/09 00:26:43;;;;;;;6.53;5.90;;;;;;;16.42;58.83;99756.66;5106975;28;20095;-73
2022/05/09 00:29:15;;;;;;;7.13;6.20;;;;;;;16.02;59.02;99699.88;5106594;28;20050;-73
2022/05/09 00:31:47;;;;;;;9.73;6.82;;;;;;;16.31;58.96;99753.91;5106819;28;20044;-74
2022/05/09 00:34:22;;;;;;;8.65;6.78;;;;;;;16.16;58.65;99725.63;5106107;28;20043;-73
2022/05/09 00:36:55;;;;;;;;;;;;;;;16.30;59.65;99758.41;5107373;28;20043;-73
2022/05/09 00:39:27;;;;;;;7.97;6.53;;;;;;;16.28;58.99;99756.81;5106673;28;19923;-73
2022/05/09 00:42:07;;;;;;;8.60;6.65;;;;;;;11.48;59.30;98946.16;5106641;28;20039;-73
2022/05/09 00:44:40;;;;;;;10.52;7.35;;;;;;;16.34;58.82;99759.91;5106280;28;20082;-74
2022/05/09 00:47:14;;;;;;;8.23;7.43;;;;;;;16.35;58.99;99758.06;5106711;28;20036;-73
2022/05/09 00:49:50;;;;;;;7.93;6.90;;;;;;;16.36;59.11;99749.94;5106631;28;20048;-73
2022/05/09 00:52:28;;;;;;;7.72;6.93;;;;;;;16.39;59.21;99753.34;5107124;28;20234;-73
2022/05/09 00:55:06;;;;;;;8.25;7.40;;;;;;;16.40;58.67;99753.25;5106379;28;20047;-74
2022/05/09 00:57:44;;;;;;;7.90;6.68;;;;;;;16.44;58.84;99756.56;5106084;28;20040;-74
2022/05/09 01:00:19;;;;;;;7.72;7.03;;;;;;;16.41;59.04;99765.66;5106036;28;20040;-74
2022/05/09 01:02:59;;;;;;;7.80;6.88;;;;;;;16.15;58.95;99730.09;5105284;28;20286;-73
2022/05/09 01:05:32;;;;;;;7.07;6.03;;;;;;;16.41;59.17;99762.13;5106300;28;20040;-74
2022/05/09 01:08:05;;;;;;;8.35;7.07;;;;;;;16.42;59.04;99769.19;5106140;28;20243;-74
2022/05/09 01:10:44;;;;;;;11.57;7.37;;;;;;;16.39;58.88;99764.91;5106432;28;20044;-73
2022/05/09 01:13:20;;;;;;;8.50;6.95;;;;;;;14.70;58.97;99486.72;5106122;28;20039;-74
2022/05/09 01:15:55;;;;;;;10.10;6.13;;;;;;;16.37;59.48;99772.19;5105393;28;20036;-75
2022/05/09 01:18:29;;;;;;;;;;;;;;;16.32;59.79;99769.84;5106840;28;20044;-74
2022/05/09 01:21:01;;;;;;;7.60;6.40;;;;;;;16.35;58.99;99768.78;5105984;28;19916;-73
2022/05/09 01:23:36;;;;;;;8.07;7.28;;;;;;;16.13;59.14;99734.72;5105886;28;20060;-73
2022/05/09 01:26:08;;;;;;;;;;;;;;;16.30;60.26;99777.13;5106483;28;20085;-74
2022/05/09 01:28:42;;;;;;;7.55;6.75;;;;;;;16.31;59.23;99773.50;5105813;28;20172;-74
2022/05/09 01:31:17;;;;;;;7.05;6.32;;;;;;;16.29;59.42;99771.91;5105795;28;20044;-74
2022/05/09 01:33:51;;;;;;;7.68;6.95;;;;;;;16.29;59.49;99780.78;5105989;28;20044;-73
2022/05/09 01:36:27;;;;;;;;;;;;;;;16.18;60.91;99778.00;5106172;28;20044;-74
2022/05/09 01:39:04;;;;;;;7.10;6.40;;;;;;;16.17;60.33;99780.81;5105527;28;19916;-73
2022/05/09 01:41:38;;;;;;;7.25;6.50;;;;;;;16.19;60.18;99784.22;5105499;28;20338;-74
2022/05/09 01:44:11;;;;;;;8.07;7.28;;;;;;;16.18;59.83;99782.50;5105607;28;20292;-73
2022/05/09 01:49:36;;;;;;;9.23;7.70;;;;;;;16.14;59.94;99783.69;5105876;28;20101;-74
2022/05/09 01:52:13;;;;;;;8.55;7.50;;;;;;;16.13;60.30;99781.97;5105556;28;20093;-74
2022/05/09 01:54:46;;;;;;;8.60;7.70;;;;;;;15.62;60.31;99691.13;5105578;28;20081;-74
2022/05/09 01:57:19;;;;;;;10.80;7.63;;;;;;;16.12;60.24;99778.44;5109269;28;20219;-74
2022/05/09 01:59:51;;;;;;;8.77;7.88;;;;;;;15.94;60.03;99755.69;5110038;28;20428;-74
2022/05/09 02:02:23;;;;;;;8.20;7.38;;;;;;;16.10;60.19;99780.38;5109944;28;20044;-74
2022/05/09 02:04:55;;;;;;;11.90;7.45;;;;;;;16.09;60.32;99784.03;5109948;28;20101;-74
2022/05/09 02:07:27;;;;;;;9.10;7.72;;;;;;;15.91;60.44;99751.44;5109547;28;20300;-74
2022/05/09 02:10:01;;;;;;;9.18;8.05;;;;;;;16.10;60.24;99779.53;5109797;28;20055;-74
2022/05/09 02:12:34;;;;;;;11.52;7.30;;;;;;;16.08;60.69;99782.31;5109685;28;20052;-74
2022/05/09 02:15:08;;;;;;;11.45;7.85;;;;;;;16.07;60.36;99782.41;5109251;28;20036;-75
2022/05/09 02:17:41;;;;;;;8.55;7.57;;;;;;;16.07;60.35;99780.59;5109571;28;20086;-74
2022/05/09 02:20:13;;;;;;;11.77;7.97;;;;;;;16.02;60.47;99780.94;5109230;28;20195;-73
2022/05/09 02:22:45;;;;;;;10.48;7.65;;;;;;;16.03;60.53;99789.81;5109251;28;20048;-74
2022/05/09 02:25:30;;;;;;;12.13;9.55;;;;;;;15.76;60.82;99748.97;5109400;28;20248;-74
2022/05/09 02:28:06;;;;;;;7.72;6.93;;;;;;;16.00;60.83;99788.19;5109300;28;20044;-74
2022/05/09 02:30:39;;;;;;;9.43;8.30;;;;;;;16.02;60.68;99788.94;5109250;28;20089;-74
2022/05/09 02:33:14;;;;;;;8.88;7.53;;;;;;;16.02;60.66;99790.75;5109189;28;20039;-74
2022/05/09 02:35:46;;;;;;;11.85;7.70;;;;;;;16.04;60.39;99795.03;5109381;28;20089;-73
2022/05/09 02:38:19;;;;;;;11.85;8.13;;;;;;;16.07;60.70;99795.78;5091243;28;20059;-74
2022/05/09 02:40:53;;;;;;;10.68;6.75;;;;;;;16.03;60.77;99790.66;5109418;28;20288;-74
2022/05/09 02:43:25;;;;;;;8.27;7.47;;;;;;;16.07;60.33;99787.75;5108391;28;20040;-74
2022/05/09 02:46:03;;;;;;;9.27;8.38;;;;;;;16.05;60.64;99785.19;5108991;28;20246;-74
2022/05/09 02:48:37;;;;;;;10.20;9.10;;;;;;;15.71;60.47;99735.94;5109118;28;20040;-74
2022/05/09 02:51:11;;;;;;;9.05;8.18;;;;;;;15.71;60.98;99750.16;5108939;28;20081;-74
2022/05/09 02:53:44;;;;;;;9.50;8.55;;;;;;;15.96;60.85;99797.41;5108695;28;20048;-74
2022/05/09 02:56:17;;;;;;;8.40;7.60;;;;;;;15.22;61.27;99674.38;5108692;28;20277;-74
2022/05/09 02:58:49;;;;;;;8.40;7.18;;;;;;;15.95;61.13;99805.53;5108928;28;20044;-74
2022/05/09 03:01:22;;;;;;;9.13;8.23;;;;;;;15.83;61.58;99803.72;5108743;28;20040;-74
2022/05/09 03:06:43;;;;;;;8.32;7.47;;;;;;;15.82;61.41;99807.34;5108639;28;20239;-74
2022/05/09 03:09:16;;;;;;;10.07;8.52;;;;;;;15.77;61.16;99805.00;5107387;28;20086;-73
2022/05/09 03:11:48;;;;;;;12.75;8.90;;;;;;;15.80;61.20;99811.94;5108427;28;20047;-74
2022/05/09 03:14:16;;;;;;;12.32;8.48;;;;;;;15.76;61.27;99805.94;5108067;28;20047;-74
2022/05/09 03:16:46;;;;;;;8.80;7.90;;;;;;;15.67;61.43;99815.47;5107949;28;20036;-74
2022/05/09 03:19:17;;;;;;;10.20;8.23;;;;;;;15.70;61.29;99809.06;5108220;28;20056;-74
2022/05/09 03:21:48;;;;;;;9.45;8.38;;;;;;;15.76;61.35;99811.28;5107588;28;20086;-74
2022/05/09 03:24:17;;;;;;;9.45;8.05;;;;;;;15.78;61.04;99812.03;5107844;28;20063;-74
2022/05/09 03:26:49;;;;;;;9.35;7.88;;;;;;;15.76;61.11;99992.16;5107897;28;20057;-74
2022/05/09 03:29:19;;;;;;;8.98;8.07;;;;;;;15.01;61.05;99738.94;5108218;28;20040;-74
2022/05/09 03:31:50;;;;;;;10.15;8.93;;;;;;;15.74;61.41;99820.38;5108071;28;20047;-74
2022/05/09 03:34:18;;;;;;;8.50;7.55;;;;;;;15.69;61.17;99826.91;5107519;28;20056;-74
2022/05/09 03:36:48;;;;;;;9.20;8.27;;;;;;;15.69;61.36;99832.25;5107876;28;20149;-74
2022/05/09 03:39:19;;;;;;;8.75;7.78;;;;;;;15.64;61.58;99834.34;5107611;28;20047;-74
2022/05/09 03:41:51;;;;;;;12.00;8.63;;;;;;;15.67;61.17;99831.50;5107759;28;20103;-74
2022/05/09 03:44:19;;;;;;;8.98;8.00;;;;;;;15.64;61.25;99839.69;5107677;28;20353;-74
2022/05/09 03:46:49;;;;;;;9.13;7.35;;;;;;;15.69;61.33;99836.72;5108261;28;20146;-74
2022/05/09 03:49:19;;;;;;;8.52;7.40;;;;;;;15.73;60.88;99830.22;5107399;28;20036;-74
2022/05/09 03:51:50;;;;;;;9.07;7.82;;;;;;;15.77;60.91;99833.53;5107664;28;20046;-76
2022/05/09 03:54:20;;;;;;;9.25;7.25;;;;;;;15.71;60.91;99842.81;5107246;28;20241;-74
2022/05/09 03:56:52;;;;;;;8.73;7.75;;;;;;;15.69;60.95;99842.94;5107332;28;20044;-74
2022/05/09 03:59:21;;;;;;;10.45;8.63;;;;;;;14.79;61.35;99700.47;5107307;28;20327;-74
2022/05/09 04:01:51;;;;;;;24.08;19.60;;;;;;;15.62;61.26;99844.28;5107312;28;20048;-74
2022/05/09 04:04:21;;;;;;;11.55;10.13;;;;;;;15.01;61.00;99732.75;5107156;28;20203;-74
2022/05/09 04:06:52;;;;;;;11.70;9.07;;;;;;;15.59;61.05;99840.97;5107334;28;20149;-74
2022/05/09 04:09:22;;;;;;;10.95;8.45;;;;;;;15.62;61.06;99846.09;5107073;28;20040;-74
2022/05/09 04:11:53;;;;;;;8.27;7.28;;;;;;;15.63;61.03;99843.31;5107262;28;20046;-74
2022/05/09 04:17:09;;;;;;;8.95;7.75;;;;;;;14.33;61.11;99640.31;5106850;28;20040;-74
2022/05/09 04:19:41;;;;;;;9.02;7.32;;;;;;;15.52;61.27;99853.88;5106793;28;20245;-74
2022/05/09 04:22:13;;;;;;;9.70;7.55;;;;;;;15.52;61.35;99853.88;5106526;28;20066;-74
2022/05/09 04:24:46;;;;;;;11.18;8.73;;;;;;;15.57;61.42;99856.25;5106770;28;20222;-74
2022/05/09 04:27:20;;;;;;;9.45;7.82;;;;;;;15.55;61.29;99853.66;5106693;28;20081;-74
2022/05/09 04:29:52;;;;;;;9.38;6.72;;;;;;;15.57;61.10;99856.25;5106628;28;20087;-74
2022/05/09 04:32:24;;;;;;;10.75;7.82;;;;;;;14.23;61.55;99657.84;5106585;28;20047;-74
2022/05/09 04:34:56;;;;;;;13.48;8.52;;;;;;;15.54;61.65;99859.97;5107021;28;20173;-74
2022/05/09 04:37:28;;;;;;;11.77;8.05;;;;;;;15.57;61.65;99869.59;5106811;28;20047;-74
2022/05/09 04:40:00;;;;;;;9.52;8.05;;;;;;;15.19;61.21;99803.59;5106674;28;20040;-74
2022/05/09 04:42:34;;;;;;;8.63;7.72;;;;;;;15.60;61.19;99867.56;5106342;28;20043;-74
2022/05/09 04:45:07;;;;;;;11.13;7.68;;;;;;;15.61;61.40;99869.28;5106628;28;20040;-74
2022/05/09 04:47:40;;;;;;;10.50;8.55;;;;;;;14.59;61.04;99691.94;5107068;28;20048;-76
2022/05/09 04:50:15;;;;;;;9.37;7.60;;;;;;;15.63;61.08;99867.38;5106146;28;20238;-76
2022/05/09 04:52:48;;;;;;;9.40;7.03;;;;;;;15.32;60.93;99817.84;5106464;28;20089;-75
2022/05/09 04:55:20;;;;;;;11.15;7.60;;;;;;;15.67;61.09;99876.91;5106446;28;20288;-75
2022/05/09 04:57:54;;;;;;;8.70;7.50;;;;;;;15.65;60.87;99868.16;5106472;28;20048;-75
2022/05/09 05:00:27;;;;;;;9.27;7.40;;;;;;;15.64;60.87;99879.75;5106049;28;20043;-75
2022/05/09 05:03:00;;;;;;;9.95;8.95;;;;;;;15.62;61.26;99876.34;5105203;28;20062;-75
2022/05/09 05:05:32;;;;;;;9.38;8.18;;;;;;;15.58;61.28;99879.31;5106234;28;20345;-75
2022/05/09 05:08:05;;;;;;;9.25;7.63;;;;;;;15.60;61.24;99882.75;5106073;28;20085;-75
2022/05/09 05:10:37;;;;;;;7.93;6.63;;;;;;;15.65;61.03;99883.31;5105790;28;20304;-75
2022/05/09 05:13:12;;;;;;;9.13;8.18;;;;;;;15.62;60.63;99902.19;5105761;28;20250;-75
2022/05/09 05:15:44;;;;;;;8.25;7.40;;;;;;;15.66;60.40;99888.56;5105662;28;20089;-75
2022/05/09 05:18:19;;;;;;;9.30;7.65;;;;;;;15.64;60.62;99887.78;5105846;28;20094;-75
2022/05/09 05:20:51;;;;;;;17.98;7.28;;;;;;;15.43;60.62;99859.84;5105618;28;20085;-75
2022/05/09 05:23:24;;;;;;;7.97;7.18;;;;;;;15.29;60.83;99858.09;5104431;28;20060;-75
2022/05/09 05:25:56;;;;;;;10.73;7.80;;;;;;;15.69;60.58;99898.19;5105501;28;20040;-75
2022/05/09 05:28:32;;;;;;;8.13;7.07;;;;;;;13.80;60.53;99572.72;5105782;28;20090;-75
2022/05/09 05:31:15;;;;;;;10.85;7.47;;;;;;;15.67;60.92;99895.63;5105019;28;20040;-75
2022/05/09 05:33:47;;;;;;;9.10;8.02;;;;;;;15.69;60.36;99890.16;5105730;28;20048;-75
2022/05/09 05:36:20;;;;;;;8.65;7.15;;;;;;;15.69;60.56;99901.72;5104570;28;20040;-75
2022/05/09 05:38:52;;;;;;;7.53;6.80;;;;;;;15.74;60.33;99898.72;5104482;28;20044;-75
2022/05/09 05:41:24;;;;;;;10.35;7.50;;;;;;;15.77;60.54;99897.66;5105374;28;20086;-75
2022/05/09 05:43:58;;;;;;;9.40;7.53;;;;;;;15.79;60.31;99899.28;5105291;28;20044;-75
2022/05/09 05:46:30;;;;;;;10.15;6.95;;;;;;;15.80;60.33;99905.47;5105616;28;20085;-75
2022/05/09 05:49:02;;;;;;;8.65;7.20;;;;;;;15.78;60.33;99902.06;5105633;28;20040;-75
2022/05/09 05:51:36;;;;;;;8.50;7.22;;;;;;;15.78;60.65;99908.25;5105494;28;20044;-75
2022/05/09 05:54:08;;;;;;;7.18;6.45;;;;;;;15.81;60.46;99909.88;5105573;28;20109;-75
2022/05/09 05:56:40;;;;;;;9.85;8.50;;;;;;;14.42;60.16;99669.03;5105236;28;20311;-75
2022/05/09 05:59:13;;;;;;;9.32;7.75;;;;;;;15.87;60.02;99910.31;5105121;28;20040;-75
2022/05/09 06:01:46;;;;;;;9.93;7.95;;;;;;;15.92;60.26;99913.53;5105056;28;20040;-75
2022/05/09 06:04:18;;;;;;;12.43;8.27;;;;;;;15.95;59.73;99917.78;5104349;28;20065;-75
2022/05/09 06:06:51;;;;;;;11.98;8.70;;;;;;;15.98;59.65;99915.78;5105349;28;20040;-75
2022/05/09 06:09:23;;;;;;;9.85;7.95;;;;;;;16.01;59.83;99920.91;5105111;28;20242;-75
2022/05/09 06:11:53;;;;;;;9.43;8.02;;;;;;;16.03;59.91;99918.13;5105178;28;20099;-75
2022/05/09 06:14:24;;;;;;;9.02;7.45;;;;;;;16.06;59.83;99922.41;5104955;28;20044;-75
2022/05/09 06:16:54;;;;;;;8.40;7.30;;;;;;;16.06;60.02;99919.72;5105259;28;20103;-75
2022/05/09 06:19:24;;;;;;;9.73;7.60;;;;;;;16.09;59.58;99922.19;5105363;28;20044;-75
2022/05/09 06:21:54;;;;;;;9.82;7.43;;;;;;;16.13;59.85;99918.34;5104843;28;20036;-75
2022/05/09 06:24:24;;;;;;;9.02;7.65;;;;;;;14.57;59.70;99650.28;5104939;28;20036;-75
2022/05/09 06:26:54;;;;;;;7.03;6.25;;;;;;;16.24;59.09;99918.47;5104814;28;20036;-75
2022/05/09 06:29:25;;;;;;;6.70;5.85;;;;;;;16.26;58.81;99928.09;5104959;28;20040;-75
2022/05/09 06:31:54;;;;;;;11.55;8.07;;;;;;;15.97;58.46;99868.63;5105029;28;20040;-75
2022/05/09 06:34:24;;;;;;;10.73;8.20;;;;;;;16.37;58.73;99927.34;5105291;28;20032;-75
2022/05/09 06:36:54;;;;;;;10.35;8.23;;;;;;;16.40;58.54;99935.16;5104249;28;20042;-75
2022/05/09 06:39:24;;;;;;;8.02;7.05;;;;;;;16.45;58.16;99926.81;5104793;28;20107;-75
2022/05/09 06:41:55;;;;;;;8.98;6.95;;;;;;;16.48;58.35;99930.13;5104777;28;20090;-75
2022/05/09 06:44:26;;;;;;;8.18;7.10;;;;;;;14.20;58.12;99537.25;5107986;28;20078;-75
2022/05/09 06:46:54;;;;;;;7.78;6.75;;;;;;;16.27;57.81;99889.69;5107833;28;20079;-75
2022/05/09 06:49:25;;;;;;;9.23;7.15;;;;;;;16.62;57.37;99937.16;5108986;28;20036;-75
2022/05/09 06:51:55;;;;;;;8.82;6.40;;;;;;;16.69;57.06;99933.13;5108364;28;20040;-75
2022/05/09 06:54:25;;;;;;;8.68;6.68;;;;;;;16.80;56.88;99938.56;5108602;28;20040;-75
2022/05/09 06:56:55;;;;;;;10.40;7.45;;;;;;;12.64;56.57;99222.81;5108626;28;20044;-75
2022/05/09 06:59:27;;;;;;;8.57;6.88;;;;;;;17.00;56.54;99929.09;5108480;28;20334;-75
2022/05/09 07:01:55;;;;;;;7.28;5.97;;;;;;;17.05;56.49;99932.28;5108437;28;20288;-75
2022/05/09 07:04:25;;;;;;;7.13;6.15;;;;;;;17.11;56.53;99934.53;5108336;28;20032;-75
2022/05/09 07:06:57;;;;;;;11.35;7.70;;;;;;;17.10;55.59;99931.97;5108408;28;20327;-75
2022/05/09 07:09:26;;;;;;;9.10;8.02;;;;;;;17.08;55.81;99936.56;5107295;28;20346;-75
2022/05/09 07:11:56;;;;;;;8.85;7.18;;;;;;;17.05;55.43;99934.97;5108032;28;20292;-75
2022/05/09 07:14:27;;;;;;;12.02;6.95;;;;;;;16.78;55.16;99897.66;5108667;28;20044;-75
2022/05/09 07:16:56;;;;;;;12.45;7.35;;;;;;;17.06;55.55;99936.69;5108170;28;20293;-75
2022/05/09 07:19:26;;;;;;;10.77;7.25;;;;;;;17.16;55.88;99935.03;5107792;28;20101;-75
2022/05/09 07:21:56;;;;;;;7.80;6.15;;;;;;;17.23;55.52;99943.53;5107938;28;20052;-75
2022/05/09 07:24:26;;;;;;;9.50;7.47;;;;;;;17.31;55.40;99933.94;5107534;28;20040;-75
2022/05/09 07:26:57;;;;;;;9.52;6.22;;;;;;;17.41;55.44;99931.44;5107579;28;20070;-74
2022/05/09 07:29:28;;;;;;;8.27;6.63;;;;;;;16.78;55.16;99814.69;5107854;28;20081;-75
2022/05/09 07:31:57;;;;;;;7.60;6.60;;;;;;;17.65;55.02;99938.66;5107692;28;20043;-75
2022/05/09 07:34:27;;;;;;;8.95;7.65;;;;;;;17.65;53.95;99928.78;5107762;28;20040;-75
2022/05/09 07:36:57;;;;;;;8.57;7.53;;;;;;;17.73;53.55;99934.44;5107529;28;20101;-75
2022/05/09 07:39:27;;;;;;;9.05;6.80;;;;;;;17.57;53.72;99889.13;5107728;28;20111;-75
2022/05/09 07:41:57;;;;;;;9.27;7.07;;;;;;;18.10;53.79;99931.63;5107436;28;20111;-75
2022/05/09 07:44:29;;;;;;;8.48;7.57;;;;;;;18.33;53.28;99925.31;5107483;28;20047;-75
2022/05/09 07:46:57;;;;;;;9.73;7.22;;;;;;;18.57;53.20;99922.56;5107043;28;20059;-74
2022/05/09 07:49:28;;;;;;;10.35;7.80;;;;;;;18.78;53.07;99922.69;5107895;28;20106;-74
2022/05/09 07:51:58;;;;;;;8.18;6.55;;;;;;;19.02;53.00;99927.91;5107470;28;20197;-74
2022/05/09 07:54:28;;;;;;;8.98;6.55;;;;;;;19.13;52.36;99917.16;5106859;28;20189;-74
2022/05/09 07:56:58;;;;;;;9.63;7.28;;;;;;;19.30;52.51;99929.19;5107197;28;20044;-75
2022/05/09 07:59:30;;;;;;;7.47;6.50;;;;;;;19.42;51.94;99928.22;5107213;28;20048;-74
2022/05/09 08:01:58;;;;;;;11.23;7.53;;;;;;;19.56;51.85;99925.22;5106814;28;20054;-74
2022/05/09 08:04:28;;;;;;;10.88;6.90;;;;;;;19.71;51.87;99926.63;5105995;28;20119;-74
2022/05/09 08:06:59;;;;;;;9.70;7.57;;;;;;;19.83;51.13;99922.94;5106897;28;20177;-75
2022/05/09 08:09:29;;;;;;;8.07;6.68;;;;;;;19.97;50.34;99932.53;5107191;28;20082;-74
2022/05/09 08:12:00;;;;;;;8.38;6.60;;;;;;;20.09;50.54;99930.63;5106267;28;20040;-74
2022/05/09 08:14:30;;;;;;;7.53;6.60;;;;;;;19.95;49.79;99875.31;5106118;28;20093;-74
2022/05/09 08:17:00;;;;;;;9.68;7.05;;;;;;;20.48;50.07;99927.22;5106937;28;20039;-74
2022/05/09 08:19:31;;;;;;;8.05;6.43;;;;;;;20.36;49.58;99882.53;5106653;28;20036;-74
2022/05/09 08:22:00;;;;;;;12.90;6.93;;;;;;;20.81;49.77;99918.03;5106701;28;20056;-75
2022/05/09 08:24:30;;;;;;;8.48;7.18;;;;;;;21.01;49.63;99910.84;5107013;28;20039;-75
2022/05/09 08:27:00;;;;;;;8.75;6.68;;;;;;;21.23;48.99;99917.03;5107047;28;20102;-75
2022/05/09 08:29:31;;;;;;;8.45;6.78;;;;;;;21.45;48.35;99939.19;5107065;28;20040;-75
2022/05/09 08:32:00;;;;;;;7.20;6.45;;;;;;;21.54;47.17;99912.38;5107467;28;20028;-75
2022/05/09 08:34:30;;;;;;;10.07;7.10;;;;;;;21.41;47.83;99918.91;5107271;28;20047;-75
2022/05/09 08:37:00;;;;;;;9.13;6.88;;;;;;;21.34;48.68;99879.16;5107417;28;20250;-75
2022/05/09 08:39:32;;;;;;;7.35;6.60;;;;;;;21.13;48.28;99825.38;5106389;28;20288;-75
2022/05/09 08:42:03;;;;;;;8.10;6.45;;;;;;;21.32;48.22;99873.91;5106562;28;20032;-75
2022/05/09 08:45:21;;;;;;;9.80;6.50;;;;;;;21.92;46.19;99916.97;5106445;28;20052;-75
2022/05/09 08:48:35;;;;;;;8.40;6.50;;;;;;;22.04;45.86;99915.81;5045859;28;20367;-75
2022/05/09 08:51:17;;;;;;;7.65;6.18;;;;;;;22.19;46.06;99911.66;5043436;28;20107;-75
2022/05/09 08:53:57;;;;;;;6.55;5.38;;;;;;;22.39;44.73;99912.47;5106229;28;20093;-75
2022/05/09 08:56:30;;;;;;;6.65;5.65;;;;;;;22.50;46.33;99912.31;5106583;28;20203;-75
2022/05/09 08:59:05;;;;;;;7.65;6.10;;;;;;;22.54;45.62;99912.88;5105990;28;20246;-75
2022/05/09 09:01:41;;;;;;;15.05;6.18;;;;;;;22.58;45.80;99909.75;5106237;28;20044;-75
2022/05/09 09:04:22;;;;;;;7.15;5.78;;;;;;;22.65;44.23;99918.13;5106212;28;20036;-75
2022/05/09 09:07:28;;;;;;;8.93;6.50;;;;;;;22.50;44.45;99916.88;5104896;28;20036;-75
2022/05/09 09:10:09;;;;;;;9.48;6.45;;;;;;;22.64;45.68;99919.97;5105416;28;20101;-75
2022/05/09 09:12:51;;;;;;;8.35;5.50;;;;;;;22.84;44.51;99912.63;5106059;28;20040;-75
2022/05/09 09:15:32;;;;;;;7.00;5.43;;;;;;;22.99;44.24;99905.72;5105655;28;20089;-75
2022/05/09 09:18:14;;;;;;;8.70;6.22;;;;;;;23.11;43.63;99913.63;5105914;28;20082;-75
2022/05/09 09:21:00;;;;;;;9.48;6.68;;;;;;;23.24;43.35;99914.13;5106095;28;20089;-75
2022/05/09 09:23:52;;;;;;;5.93;4.97;;;;;;;23.31;42.68;99916.09;5105491;28;20060;-75
2022/05/09 09:26:35;;;;;;;8.70;5.20;;;;;;;23.26;42.26;99860.75;5105892;28;20047;-75
2022/05/09 09:29:11;;;;;;;8.77;5.45;;;;;;;23.53;42.67;99911.25;5105167;28;20086;-75
2022/05/09 09:31:47;;;;;;;8.23;4.85;;;;;;;23.53;42.57;99905.84;5105540;28;20062;-75
2022/05/09 09:34:27;;;;;;;7.30;4.97;;;;;;;23.63;42.52;100056.28;5105633;28;20048;-75
2022/05/09 09:37:08;;;;;;;6.60;5.57;;;;;;;23.83;42.70;99910.00;5105542;28;20271;-75
2022/05/09 09:39:41;;;;;;;7.55;6.13;;;;;;;23.87;42.79;99908.69;5105708;28;20273;-75
2022/05/09 09:42:13;;;;;;;8.20;6.15;;;;;;;23.88;42.73;99905.81;5104820;28;20097;-75
2022/05/09 09:44:48;;;;;;;7.30;5.85;;;;;;;23.92;42.65;99901.81;5105647;28;20039;-75
2022/05/09 09:47:25;;;;;;;8.32;6.22;;;;;;;24.09;41.12;99904.66;5105466;28;20197;-75
2022/05/09 09:50:14;;;;;;;5.90;4.93;;;;;;;24.13;39.87;99897.94;5105635;28;20043;-75
2022/05/09 09:52:52;;;;;;;7.05;5.15;;;;;;;24.23;40.60;99896.81;5105550;28;20253;-75
2022/05/09 09:55:28;;;;;;;11.18;6.43;;;;;;;24.33;40.31;99899.41;5105906;28;20112;-75
2022/05/09 09:58:19;;;;;;;6.60;5.90;;;;;;;24.12;39.00;99890.81;5105902;28;20040;-75
2022/05/09 10:01:04;;;;;;;6.32;5.35;;;;;;;24.13;40.12;99887.94;5105933;28;20048;-75
2022/05/09 10:03:39;;;;;;;6.78;4.93;;;;;;;24.26;41.97;99884.81;5105767;28;20085;-75
2022/05/09 10:06:19;;;;;;;7.90;6.82;;;;;;;24.48;40.17;99888.84;5104974;28;20093;-75
2022/05/09 10:08:58;;;;;;;7.72;6.30;;;;;;;24.42;39.75;99892.19;5105062;28;20242;-75
2022/05/09 10:11:31;;;;;;;8.20;5.70;;;;;;;24.44;40.21;99884.75;5105234;28;20226;-74
2022/05/09 10:14:06;;;;;;;5.95;5.32;;;;;;;24.37;40.67;99884.53;5104991;28;20248;-74
2022/05/09 10:16:45;;;;;;;8.20;5.53;;;;;;;24.44;40.71;99885.59;5105496;28;20048;-74
2022/05/09 10:19:31;;;;;;;7.20;6.18;;;;;;;24.65;39.28;99877.09;5109339;28;20226;-75
2022/05/09 10:24:57;;;;;;;7.30;5.63;;;;;;;24.95;40.12;99867.56;5089303;28;20075;-74
2022/05/09 10:27:32;;;;;;;5.85;5.25;;;;;;;24.17;39.81;99763.91;5109347;28;20105;-74
2022/05/09 10:30:07;;;;;;;8.00;5.60;;;;;;;24.61;40.36;99865.72;5108908;28;20333;-74
2022/05/09 10:32:46;;;;;;;8.32;6.00;;;;;;;24.67;40.27;99861.53;5108904;28;20281;-74
2022/05/09 10:35:23;;;;;;;7.45;6.00;;;;;;;24.91;40.56;99858.91;5108776;28;20055;-73
2022/05/09 10:38:00;;;;;;;6.57;5.53;;;;;;;24.61;40.19;99797.13;5108891;28;20048;-76
2022/05/09 10:40:39;;;;;;;7.68;6.25;;;;;;;25.09;39.00;99856.13;5108100;28;20040;-74
2022/05/09 10:43:17;;;;;;;6.80;5.07;;;;;;;25.19;39.18;99851.41;5107636;28;20070;-74
2022/05/09 10:45:50;;;;;;;11.25;5.38;;;;;;;25.30;40.11;99846.66;5108553;28;20054;-75
2022/05/09 10:48:34;;;;;;;8.40;6.60;;;;;;;25.09;37.99;99817.31;5108671;28;20078;-75
2022/05/09 10:51:12;;;;;;;6.85;5.60;;;;;;;25.08;37.59;99842.72;5108229;28;20299;-74
2022/05/09 10:53:53;;;;;;;6.10;5.45;;;;;;;24.67;38.48;99763.13;5108251;28;20244;-74
2022/05/09 10:56:32;;;;;;;10.25;5.60;;;;;;;25.13;38.23;99835.78;5108556;28;20044;-74
2022/05/09 10:59:10;;;;;;;8.85;5.47;;;;;;;24.10;37.38;99914.50;5108203;28;20181;-74
2022/05/09 11:01:50;;;;;;;9.40;5.18;;;;;;;25.08;37.05;99832.72;5108265;28;20048;-74
2022/05/09 11:04:22;;;;;;;7.53;5.68;;;;;;;25.22;38.76;99836.66;5108166;28;20036;-74
2022/05/09 11:07:04;;;;;;;8.52;6.55;;;;;;;25.26;37.06;99835.31;5108254;28;20285;-74
2022/05/09 11:09:48;;;;;;;9.55;6.55;;;;;;;25.40;37.48;99828.41;5108058;28;20044;-74
2022/05/09 11:12:53;;;;;;;11.15;8.38;;;;;;;22.04;37.10;99276.19;5107165;28;20054;-74
2022/05/09 11:15:30;;;;;;;;;;;;;;;25.09;37.00;99823.59;5108223;28;20065;-74
2022/05/09 11:18:23;;;;;;;9.10;7.10;;;;;;;25.05;38.02;99816.78;5107894;28;19916;-74
2022/05/09 11:21:07;;;;;;;8.00;6.47;;;;;;;24.30;38.43;99702.03;5107934;28;20048;-74
2022/05/09 11:23:53;;;;;;;8.70;6.82;;;;;;;24.92;38.51;99806.41;5107477;28;20055;-74
2022/05/09 11:26:32;;;;;;;6.60;5.57;;;;;;;25.01;38.06;99815.44;5107618;28;20051;-74
2022/05/09 11:29:30;;;;;;;6.00;5.35;;;;;;;24.80;37.39;99768.91;5106835;28;20093;-74
2022/05/09 11:32:26;;;;;;;9.73;6.38;;;;;;;25.14;36.68;99804.94;5107532;28;20039;-74
2022/05/09 11:35:21;;;;;;;7.15;5.53;;;;;;;25.19;36.73;99799.88;5107481;28;20052;-74
2022/05/09 11:38:37;;;;;;;8.02;6.60;;;;;;;25.30;37.17;99798.69;5107520;28;20239;-74
2022/05/09 11:41:30;;;;;;;8.73;7.50;;;;;;;25.26;37.37;99798.19;5094720;28;20105;-74
2022/05/09 11:44:13;;;;;;;7.32;5.78;;;;;;;25.18;37.59;99792.75;5106591;28;20211;-74
2022/05/09 11:47:14;;;;;;;10.68;6.78;;;;;;;25.02;36.99;99756.63;5107433;28;20097;-74
2022/05/09 11:50:13;;;;;;;10.80;6.63;;;;;;;25.37;36.09;99785.34;5107005;28;20242;-75
2022/05/09 11:52:46;;;;;;;7.18;5.95;;;;;;;24.87;37.88;99685.91;5106346;28;20261;-74
2022/05/09 11:55:20;;;;;;;6.60;5.75;;;;;;;25.47;37.14;99739.88;5107033;28;20048;-74
2022/05/09 11:57:55;;;;;;;8.32;5.72;;;;;;;25.80;36.76;99773.25;5107255;28;20048;-75
2022/05/09 12:00:51;;;;;;;8.05;5.60;;;;;;;25.72;35.25;99774.13;5106949;28;20062;-74
2022/05/09 12:03:54;;;;;;;7.63;5.53;;;;;;;25.49;34.81;99735.97;5107305;28;20048;-74
2022/05/09 12:06:39;;;;;;;8.93;6.20;;;;;;;25.75;35.83;99771.06;5045349;28;20099;-74
2022/05/09 12:09:15;;;;;;;6.70;5.15;;;;;;;25.97;36.91;99757.78;5102566;28;20052;-74
2022/05/09 12:11:52;;;;;;;7.40;4.78;;;;;;;25.26;36.49;99653.56;5106767;28;20177;-74
2022/05/09 12:14:46;;;;;;;6.53;4.95;;;;;;;25.88;35.68;99763.22;5106962;28;20048;-74
2022/05/09 12:17:22;;;;;;;6.65;4.47;;;;;;;25.94;37.21;99753.53;5089013;28;20071;-74
2022/05/09 12:19:56;;;;;;;5.28;4.78;;;;;;;26.04;36.96;99756.09;5106788;28;20048;-75